Accueil
METAR-TAF:

METAR-TAF

Aéroports :

Meppen, Allemagne

Base aérienne

latitude: 52-43-24N, longitude: 007-19-35E, altitude: 21 m

Observation

Le bulletin a été fait il y a 1 heure et 9 minutes, à 11:20 UTC
Vent 6 kt de sud-ouest
Température 20°C
Humidité 56%
Pression 1006 hPa
Visibilité 10 km ou plus
Quelques nuages à une hauteur de 3000 ft
Nuages fragmentés à une hauteur de 16000 ft

METAR: ETWM 271120Z 23006KT 9999 FEW030 BKN160 20/11 Q1006 BLU

Heure: 14:29 (12:29 UTC)


TAF: absent

Observations et prévisions météorologiques de plus de 4000 aéroports (messages METAR et TAF).

Les stations disponibles sont représentées par des disques jaunes et rouges sur la carte.

Passer la souris dessus pour voir le nom de la station.

Cliquer dessus pour voir les observations et prévisions météorologiques.

Pour changer de carte: cliquez sur les boutons verts avec une croix noire pour zoomer, sur le bouton vert avec un tiret pour effectuer un zoom arrière, ou sur les flèches vertes pour les cartes adjacentes.


METAR-TAF: